Time;durP1;ratioP1;P1;durP2;ratioP2;P2;SDS_P1;SDS_P2;PMS_P1;PMS_P2;Temp;Humidity;BMP_temperature;BMP_pressure;BME280_temperature;BME280_humidity;BME280_pressure;Samples;Min_cycle;Max_cycle;Signal;HPM_P1;HPM_P2
2023/02/13 00:00:23;;;;;;;12.25;8.90;;;20.40;31.80;;;;;;5015544;28;20054;-61
2023/02/13 00:02:50;;;;;;;13.73;9.38;;;20.40;31.80;;;;;;5015397;28;20052;-61
2023/02/13 00:05:18;;;;;;;13.52;9.10;;;20.40;31.80;;;;;;5015309;28;20084;-61
2023/02/13 00:07:45;;;;;;;12.57;8.38;;;20.40;31.80;;;;;;5015137;28;20050;-61
2023/02/13 00:10:12;;;;;;;13.15;8.93;;;20.40;31.80;;;;;;5015286;28;20078;-61
2023/02/13 00:12:40;;;;;;;11.70;8.63;;;20.40;31.90;;;;;;5015700;28;20072;-61
2023/02/13 00:15:08;;;;;;;13.75;9.25;;;20.40;31.80;;;;;;5014935;28;20054;-61
2023/02/13 00:17:35;;;;;;;12.55;9.00;;;20.40;31.90;;;;;;5015331;28;20073;-61
2023/02/13 00:20:04;;;;;;;11.68;8.55;;;20.30;31.80;;;;;;5014933;28;20076;-61
2023/02/13 00:22:35;;;;;;;11.35;8.25;;;20.40;31.90;;;;;;5014576;28;20052;-61
2023/02/13 00:25:03;;;;;;;11.75;8.40;;;20.30;31.80;;;;;;4997661;28;20056;-61
2023/02/13 00:27:30;;;;;;;12.07;8.43;;;20.30;31.80;;;;;;5015227;28;20042;-61
2023/02/13 00:29:57;;;;;;;12.60;8.93;;;20.30;31.80;;;;;;5015057;28;20137;-61
2023/02/13 00:32:25;;;;;;;12.25;8.88;;;20.30;31.90;;;;;;5015216;28;20045;-61
2023/02/13 00:34:52;;;;;;;12.57;8.68;;;20.30;31.80;;;;;;5014626;28;20056;-61
2023/02/13 00:37:19;;;;;;;11.90;9.00;;;20.30;31.90;;;;;;5015351;28;20391;-61
2023/02/13 00:39:46;;;;;;;13.07;9.23;;;20.30;31.90;;;;;;5014793;28;20054;-61
2023/02/13 00:42:13;;;;;;;12.13;8.65;;;20.30;31.90;;;;;;5014814;28;20050;-61
2023/02/13 00:44:40;;;;;;;10.82;8.20;;;20.30;31.90;;;;;;5014396;28;20046;-61
2023/02/13 00:47:07;;;;;;;13.10;8.88;;;20.30;31.90;;;;;;5015059;28;20055;-61
2023/02/13 00:49:34;;;;;;;12.95;9.00;;;20.30;31.90;;;;;;5014989;28;20104;-61
2023/02/13 00:52:01;;;;;;;12.75;9.45;;;20.30;31.90;;;;;;5014880;28;20061;-61
2023/02/13 00:54:28;;;;;;;11.02;8.50;;;20.30;31.90;;;;;;5014205;28;20045;-61
2023/02/13 00:56:55;;;;;;;11.60;8.43;;;20.30;31.90;;;;;;5014862;28;20125;-61
2023/02/13 00:59:22;;;;;;;11.80;8.27;;;20.20;31.90;;;;;;5014977;28;20065;-61
2023/02/13 01:01:50;;;;;;;12.52;8.65;;;20.30;31.90;;;;;;5014655;28;20068;-61
2023/02/13 01:04:17;;;;;;;11.35;7.93;;;20.20;31.90;;;;;;5014745;28;20050;-61
2023/02/13 01:06:44;;;;;;;11.05;8.30;;;20.30;31.90;;;;;;5014618;28;20133;-61
2023/02/13 01:09:11;;;;;;;11.40;8.07;;;20.20;31.90;;;;;;5014109;28;20056;-61
2023/02/13 01:11:38;;;;;;;12.25;7.95;;;20.20;31.90;;;;;;5013156;28;20054;-62
2023/02/13 01:14:05;;;;;;;11.63;8.55;;;20.20;31.90;;;;;;5014244;28;20042;-61
2023/02/13 01:16:32;;;;;;;12.68;8.23;;;20.20;31.90;;;;;;5014642;28;20463;-61
2023/02/13 01:18:59;;;;;;;12.23;8.40;;;20.20;31.90;;;;;;5014069;28;20128;-61
2023/02/13 01:21:26;;;;;;;13.07;8.23;;;20.20;31.90;;;;;;5014541;28;20073;-61
2023/02/13 01:23:54;;;;;;;12.27;8.32;;;20.20;31.90;;;;;;5014095;28;20072;-61
2023/02/13 01:26:22;;;;;;;12.25;8.25;;;20.20;31.90;;;;;;5013695;28;20520;-61
2023/02/13 01:28:54;;;;;;;11.73;8.30;;;20.20;32.00;;;;;;5014056;28;20088;-61
2023/02/13 01:31:21;;;;;;;11.88;8.77;;;20.20;32.00;;;;;;5014330;28;20101;-61
2023/02/13 01:33:48;;;;;;;10.48;8.25;;;20.20;32.00;;;;;;5013770;28;20046;-62
2023/02/13 01:36:15;;;;;;;12.23;7.97;;;20.20;32.00;;;;;;5013846;28;20056;-62
2023/02/13 01:38:42;;;;;;;11.38;8.20;;;20.10;31.90;;;;;;5013966;28;20117;-62
2023/02/13 01:41:10;;;;;;;12.32;8.82;;;20.20;32.00;;;;;;5013677;28;20072;-62
2023/02/13 01:43:51;;;;;;;11.57;7.90;;;20.20;32.00;;;;;;5013592;28;20085;-61
2023/02/13 01:46:24;;;;;;;11.00;7.80;;;20.20;32.00;;;;;;5013770;28;20052;-61
2023/02/13 01:48:55;;;;;;;12.68;8.30;;;20.20;32.00;;;;;;5013655;28;20128;-61
2023/02/13 01:51:24;;;;;;;;;;;20.10;31.90;;;;;;5014456;28;20125;-61
2023/02/13 01:54:02;;;;;;;11.02;7.47;;;20.10;31.90;;;;;;5013805;28;19921;-61
2023/02/13 01:56:43;;;;;;;11.10;7.38;;;20.10;31.90;;;;;;5013486;28;20218;-61
2023/02/13 01:59:13;;;;;;;9.90;7.78;;;20.10;31.90;;;;;;5013193;28;20046;-61
2023/02/13 02:01:41;;;;;;;10.63;7.57;;;20.10;31.90;;;;;;5013551;28;20124;-61
2023/02/13 02:04:15;;;;;;;11.18;7.68;;;20.10;31.90;;;;;;5013666;28;20486;-61
2023/02/13 02:06:48;;;;;;;9.65;7.30;;;20.10;31.90;;;;;;5012947;28;20052;-61
2023/02/13 02:09:19;;;;;;;9.10;7.13;;;20.10;31.90;;;;;;5013696;28;20045;-61
2023/02/13 02:12:05;;;;;;;11.32;7.90;;;20.10;32.00;;;;;;5013511;28;20077;-61
2023/02/13 02:14:32;;;;;;;12.98;8.65;;;20.10;32.00;;;;;;5012818;28;20124;-61
2023/02/13 02:17:00;;;;;;;11.93;8.07;;;20.10;32.00;;;;;;5013436;28;20053;-61
2023/02/13 02:20:06;;;;;;;10.75;7.47;;;20.10;32.00;;;;;;5013060;28;20482;-61
2023/02/13 02:23:05;;;;;;;10.65;7.57;;;20.10;32.00;;;;;;4988097;28;20137;-61
2023/02/13 02:26:06;;;;;;;9.25;6.72;;;20.10;32.00;;;;;;5013187;28;20052;-61
2023/02/13 02:28:53;;;;;;;;;;;20.10;32.00;;;;;;5013644;28;20049;-61
2023/02/13 02:31:53;;;;;;;10.40;6.70;;;20.00;31.90;;;;;;5012347;28;20388;-61
2023/02/13 02:34:50;;;;;;;9.70;6.53;;;20.00;31.90;;;;;;4998839;28;20057;-61
2023/02/13 02:37:44;;;;;;;10.55;7.25;;;20.00;31.90;;;;;;5013648;28;20053;-62
2023/02/13 02:40:35;;;;;;;10.10;7.03;;;20.00;31.90;;;;;;4994886;28;20046;-61
2023/02/13 02:43:42;;;;;;;8.55;6.68;;;20.00;31.90;;;;;;5013075;28;20129;-62
2023/02/13 02:46:29;;;;;;;9.77;6.85;;;20.00;31.90;;;;;;5012831;28;20057;-62
2023/02/13 02:52:16;;;;;;;9.45;7.13;;;20.00;31.90;;;;;;5012956;28;20049;-62
2023/02/13 02:55:07;;;;;;;10.68;6.97;;;20.00;32.00;;;;;;5012890;28;20085;-61
2023/02/13 03:06:27;;;;;;;7.88;5.93;;;20.00;32.00;;;;;;5011230;28;20046;-62
2023/02/13 03:14:43;;;;;;;9.45;6.75;;;19.90;31.90;;;;;;5009357;28;20497;-62
2023/02/13 03:23:14;;;;;;;7.85;5.57;;;19.90;32.00;;;;;;5014930;28;20128;-61
2023/02/13 03:26:11;;;;;;;10.05;6.00;;;19.90;31.90;;;;;;4997924;28;20048;-61
2023/02/13 03:32:10;;;;;;;7.75;5.82;;;19.90;31.90;;;;;;5012587;28;20692;-61
2023/02/13 03:37:55;;;;;;;6.82;5.40;;;19.90;32.00;;;;;;5012382;28;20049;-61
2023/02/13 03:40:35;;;;;;;9.02;5.78;;;19.90;32.00;;;;;;5012149;28;20092;-62
2023/02/13 03:43:13;;;;;;;7.50;5.97;;;19.90;32.00;;;;;;5013968;28;20413;-62
2023/02/13 03:45:52;;;;;;;6.82;4.72;;;19.90;32.00;;;;;;5013243;28;20473;-61
2023/02/13 03:51:20;;;;;;;7.28;5.30;;;19.90;32.00;;;;;;5012832;28;20052;-61
2023/02/13 03:53:53;;;;;;;8.15;5.68;;;19.90;31.90;;;;;;5013998;28;20046;-61
2023/02/13 03:59:19;;;;;;;7.93;4.90;;;19.90;31.90;;;;;;5013905;28;20129;-61
2023/02/13 04:02:11;;;;;;;8.85;5.28;;;19.90;31.90;;;;;;5012594;28;20430;-61
2023/02/13 04:04:51;;;;;;;7.25;4.57;;;19.90;31.90;;;;;;4997260;28;20049;-61
2023/02/13 04:07:31;;;;;;;7.50;5.32;;;19.90;31.90;;;;;;4996989;28;20490;-61
2023/02/13 04:10:02;;;;;;;7.18;5.35;;;19.90;31.90;;;;;;5015308;28;20049;-62
2023/02/13 04:13:07;;;;;;;7.03;4.90;;;19.90;31.90;;;;;;5014215;28;20504;-62
2023/02/13 04:15:40;;;;;;;7.20;5.28;;;19.90;31.90;;;;;;4999181;28;20050;-61
2023/02/13 04:18:31;;;;;;;7.03;4.43;;;19.90;31.90;;;;;;5013238;28;20407;-62
2023/02/13 04:21:06;;;;;;;7.18;5.40;;;19.90;31.90;;;;;;5014195;28;20046;-62
2023/02/13 04:23:33;;;;;;;6.00;4.53;;;19.90;31.90;;;;;;5015150;28;20064;-61
2023/02/13 04:26:07;;;;;;;5.10;4.28;;;19.90;31.80;;;;;;5014719;28;20050;-61
2023/02/13 04:28:34;;;;;;;6.70;4.55;;;19.90;31.90;;;;;;5011302;28;20046;-61
2023/02/13 04:31:02;;;;;;;5.90;5.03;;;19.90;31.90;;;;;;5014905;28;20056;-62
2023/02/13 04:33:29;;;;;;;6.30;4.80;;;19.80;31.80;;;;;;5014746;28;20049;-62
2023/02/13 04:35:56;;;;;;;6.60;4.55;;;19.80;31.80;;;;;;5014310;28;20046;-61
2023/02/13 04:38:23;;;;;;;6.53;4.88;;;19.80;31.80;;;;;;5014509;28;20046;-62
2023/02/13 04:40:50;;;;;;;7.25;4.88;;;19.80;31.80;;;;;;5014237;28;20091;-62
2023/02/13 04:43:17;;;;;;;6.90;4.70;;;19.80;31.80;;;;;;5014564;28;20141;-62
2023/02/13 04:45:48;;;;;;;8.52;5.00;;;19.80;31.80;;;;;;5014261;28;20052;-62
2023/02/13 04:48:15;;;;;;;;;;;19.80;31.80;;;;;;5011525;28;20064;-62
2023/02/13 04:50:42;;;;;;;6.07;4.57;;;19.80;31.80;;;;;;5013704;28;19968;-62
2023/02/13 04:53:09;;;;;;;6.45;4.40;;;19.80;31.80;;;;;;5013784;28;20046;-62
2023/02/13 04:55:36;;;;;;;5.45;4.18;;;19.80;31.80;;;;;;5014558;28;20056;-62
2023/02/13 04:58:03;;;;;;;5.72;4.32;;;19.80;31.80;;;;;;5014873;28;20057;-62
2023/02/13 05:00:30;;;;;;;7.15;4.30;;;19.80;31.80;;;;;;5021526;28;20124;-62
2023/02/13 05:03:06;;;;;;;6.20;4.78;;;19.80;31.80;;;;;;5014358;28;20058;-62
2023/02/13 05:05:34;;;;;;;6.18;4.05;;;19.80;31.80;;;;;;5014428;28;20049;-61
2023/02/13 05:08:01;;;;;;;6.18;4.85;;;19.80;31.80;;;;;;5014429;28;20060;-61
2023/02/13 05:10:28;;;;;;;6.15;4.28;;;19.80;31.80;;;;;;5014685;28;20133;-62
2023/02/13 05:12:55;;;;;;;5.25;3.85;;;19.80;31.80;;;;;;5014502;28;20121;-61
2023/02/13 05:15:23;;;;;;;4.60;3.58;;;19.70;31.80;;;;;;5014378;28;20494;-61
2023/02/13 05:17:50;;;;;;;5.65;3.83;;;19.70;31.80;;;;;;5013795;28;20053;-61
2023/02/13 05:20:18;;;;;;;4.63;3.80;;;19.70;31.80;;;;;;5013030;28;20042;-61
2023/02/13 05:25:39;;;;;;;5.57;3.83;;;19.70;31.70;;;;;;5003752;28;20053;-64
2023/02/13 05:30:53;;;;;;;6.63;4.47;;;19.70;31.70;;;;;;5012333;28;20491;-61
2023/02/13 05:33:21;;;;;;;4.72;4.10;;;19.70;31.70;;;;;;5013429;28;20046;-62
2023/02/13 05:35:48;;;;;;;5.88;3.97;;;19.70;31.70;;;;;;5013158;28;20049;-61
2023/02/13 05:38:15;;;;;;;7.22;5.15;;;19.70;31.60;;;;;;5010504;28;20050;-61
2023/02/13 05:40:42;;;;;;;5.68;4.20;;;19.70;31.40;;;;;;5011138;28;20498;-61
2023/02/13 05:43:09;;;;;;;6.47;4.82;;;19.70;31.40;;;;;;5012941;28;20042;-61
2023/02/13 05:45:36;;;;;;;7.70;5.22;;;19.60;31.30;;;;;;5004927;28;20042;-61
2023/02/13 05:48:03;;;;;;;7.15;5.07;;;19.70;31.40;;;;;;5011907;28;20413;-61
2023/02/13 05:50:31;;;;;;;5.32;3.75;;;19.60;31.30;;;;;;5011080;28;20089;-61
2023/02/13 05:52:58;;;;;;;5.13;4.22;;;19.60;31.30;;;;;;5012270;28;20054;-61
2023/02/13 05:55:27;;;;;;;6.97;4.63;;;19.60;31.30;;;;;;5009144;28;20049;-62
2023/02/13 05:57:56;;;;;;;6.25;4.25;;;19.60;31.30;;;;;;5011410;28;20053;-62
2023/02/13 06:00:23;;;;;;;7.15;4.05;;;19.60;31.30;;;;;;5013263;28;20042;-62
2023/02/13 06:02:51;;;;;;;6.45;4.20;;;19.60;31.30;;;;;;5011415;28;20504;-61
2023/02/13 06:05:18;;;;;;;6.60;4.50;;;19.60;31.20;;;;;;5026819;28;20045;-61
2023/02/13 06:07:45;;;;;;;6.07;4.13;;;19.60;31.20;;;;;;5012758;28;20049;-61
2023/02/13 06:10:12;;;;;;;5.97;4.70;;;19.60;31.10;;;;;;5013566;28;20045;-61
2023/02/13 06:12:39;;;;;;;7.13;4.32;;;19.70;31.10;;;;;;5013550;28;20058;-61
2023/02/13 06:15:06;;;;;;;5.82;4.75;;;19.70;31.00;;;;;;5012584;28;20128;-61
2023/02/13 06:17:33;;;;;;;7.20;4.85;;;19.70;30.90;;;;;;5012667;28;20056;-61
2023/02/13 06:20:01;;;;;;;7.07;4.85;;;19.80;31.00;;;;;;5011855;28;20076;-60
2023/02/13 06:22:28;;;;;;;6.78;4.68;;;19.80;31.00;;;;;;5012258;28;20045;-61
2023/02/13 06:24:55;;;;;;;6.78;5.00;;;19.80;31.00;;;;;;5006046;28;20050;-60
2023/02/13 06:27:22;;;;;;;7.10;5.20;;;19.90;31.00;;;;;;5009101;28;20132;-61
2023/02/13 06:29:49;;;;;;;7.25;4.80;;;19.90;30.90;;;;;;5008715;28;20042;-61
2023/02/13 06:32:16;;;;;;;9.93;5.93;;;20.00;31.10;;;;;;5009078;28;20061;-60
2023/02/13 06:34:44;;;;;;;7.25;5.20;;;20.00;31.00;;;;;;5004356;28;20081;-61
2023/02/13 06:37:11;;;;;;;6.32;5.28;;;20.10;30.90;;;;;;5007552;28;20050;-61
2023/02/13 06:39:39;;;;;;;7.82;5.70;;;20.20;30.90;;;;;;5001381;28;20046;-61
2023/02/13 06:42:06;;;;;;;7.35;5.35;;;20.20;30.80;;;;;;5004376;28;20085;-61
2023/02/13 06:44:33;;;;;;;8.40;5.93;;;20.30;30.80;;;;;;5006158;28;20042;-61
2023/02/13 06:47:01;;;;;;;9.52;5.80;;;20.30;30.70;;;;;;5009526;28;20056;-61
2023/02/13 06:49:28;;;;;;;13.07;6.18;;;20.40;30.80;;;;;;5006293;28;20046;-62
2023/02/13 06:51:55;;;;;;;8.20;5.90;;;20.40;30.80;;;;;;5003026;28;20809;-61
2023/02/13 06:54:22;;;;;;;9.60;6.05;;;20.40;30.80;;;;;;5003942;28;20506;-61
2023/02/13 06:57:12;;;;;;;13.80;6.28;;;20.50;31.10;;;;;;5006293;28;20049;-62
2023/02/13 06:59:42;;;;;;;10.82;6.20;;;20.50;31.50;;;;;;5009604;28;20401;-63
2023/02/13 07:02:10;;;;;;;10.63;6.47;;;20.60;31.70;;;;;;5005108;28;20049;-62
2023/02/13 07:04:37;;;;;;;10.57;7.22;;;20.70;31.90;;;;;;5005959;28;20581;-61
2023/02/13 07:07:05;;;;;;;13.20;6.97;;;20.70;31.90;;;;;;5005269;28;20052;-61
2023/02/13 07:09:32;;;;;;;12.90;7.95;;;20.70;31.80;;;;;;5004853;28;20046;-62
2023/02/13 07:12:02;;;;;;;16.08;9.10;;;20.80;31.70;;;;;;5003641;28;20510;-61
2023/02/13 07:14:29;;;;;;;;;;;20.90;31.60;;;;;;5000876;28;20530;-61
2023/02/13 07:16:57;;;;;;;17.65;9.93;;;20.90;31.50;;;;;;5004489;28;20056;-60
2023/02/13 07:19:24;;;;;;;17.25;10.68;;;21.00;31.40;;;;;;5003272;28;20050;-60
2023/02/13 07:21:51;;;;;;;17.23;9.98;;;21.00;31.40;;;;;;5003713;28;20140;-60
2023/02/13 07:24:18;;;;;;;18.50;11.32;;;21.10;31.40;;;;;;5004085;28;20213;-61
2023/02/13 07:26:46;;;;;;;17.73;11.05;;;21.10;31.30;;;;;;5005438;28;20100;-60
2023/02/13 07:29:13;;;;;;;21.90;12.15;;;21.20;31.20;;;;;;5001752;28;20137;-61
2023/02/13 07:31:41;;;;;;;23.08;12.32;;;21.20;31.20;;;;;;5004720;28;20516;-61
2023/02/13 07:34:08;;;;;;;23.95;13.73;;;21.30;31.10;;;;;;5002176;28;20053;-60
2023/02/13 07:36:35;;;;;;;27.27;14.73;;;21.30;31.00;;;;;;5000812;28;20064;-60
2023/02/13 07:39:02;;;;;;;30.45;14.77;;;21.30;30.90;;;;;;5004005;28;20140;-60
2023/02/13 07:41:29;;;;;;;26.10;14.73;;;21.40;30.90;;;;;;5001894;28;20056;-62
2023/02/13 07:43:57;;;;;;;30.60;15.35;;;21.40;31.00;;;;;;5001804;28;20777;-62
2023/02/13 07:46:24;;;;;;;27.23;16.52;;;21.50;31.10;;;;;;5008460;28;20120;-63
2023/02/13 07:48:52;;;;;;;27.38;16.05;;;21.50;31.10;;;;;;5005240;28;20959;-62
2023/02/13 07:51:19;;;;;;;33.58;17.48;;;21.60;31.10;;;;;;5003680;28;20050;-59
2023/02/13 07:53:46;;;;;;;35.40;18.45;;;21.60;31.40;;;;;;5005166;28;20104;-60
2023/02/13 07:56:14;;;;;;;32.25;17.48;;;21.70;31.80;;;;;;5004922;28;20056;-61
2023/02/13 07:58:43;;;;;;;30.55;17.70;;;21.70;31.80;;;;;;5005134;28;20512;-62
2023/02/13 08:01:14;;;;;;;32.83;18.05;;;21.80;32.00;;;;;;4987884;28;20133;-61
2023/02/13 08:03:41;;;;;;;34.17;17.42;;;21.80;32.20;;;;;;4992218;28;20480;-61
2023/02/13 08:06:09;;;;;;;31.85;17.98;;;21.90;32.30;;;;;;5006738;28;20058;-60
2023/02/13 08:08:37;;;;;;;29.98;16.50;;;21.90;32.20;;;;;;5001109;28;20046;-60
2023/02/13 08:13:58;;;;;;;31.15;16.95;;;22.00;32.20;;;;;;4990016;28;20503;-61
2023/02/13 08:16:26;;;;;;;34.40;17.27;;;22.10;32.10;;;;;;5004994;28;20133;-60
2023/02/13 08:18:53;;;;;;;27.33;15.98;;;22.10;32.10;;;;;;4987123;28;20414;-62
2023/02/13 08:21:20;;;;;;;26.85;15.65;;;22.10;32.00;;;;;;5000140;28;20409;-61
2023/02/13 08:23:47;;;;;;;24.52;15.20;;;22.20;31.80;;;;;;5002910;28;20077;-61
2023/02/13 08:26:14;;;;;;;23.10;13.82;;;22.20;31.90;;;;;;5003659;28;20050;-60
2023/02/13 08:28:42;;;;;;;25.23;15.10;;;22.30;32.10;;;;;;5007263;28;20049;-62
2023/02/13 08:31:11;;;;;;;22.70;14.15;;;22.30;32.20;;;;;;5000092;28;20058;-60
2023/02/13 08:33:40;;;;;;;23.33;14.23;;;22.30;32.20;;;;;;5001123;28;20521;-59
2023/02/13 08:36:08;;;;;;;21.80;13.20;;;22.40;32.30;;;;;;5001233;28;20485;-60
2023/02/13 08:38:35;;;;;;;20.10;12.70;;;22.40;32.50;;;;;;5004793;28;20105;-60
2023/02/13 08:41:02;;;;;;;22.77;13.13;;;22.50;32.50;;;;;;5001529;28;20410;-61
2023/02/13 08:43:29;;;;;;;22.33;13.73;;;22.50;32.60;;;;;;5006577;28;20078;-61
2023/02/13 08:46:00;;;;;;;23.55;13.45;;;22.50;32.60;;;;;;5004344;28;20086;-61
2023/02/13 08:48:28;;;;;;;19.33;12.73;;;22.60;32.70;;;;;;5001112;28;20490;-60
2023/02/13 08:50:56;;;;;;;18.50;12.10;;;22.60;32.90;;;;;;4999748;28;20137;-60
2023/02/13 08:53:23;;;;;;;17.17;11.48;;;22.70;32.90;;;;;;5003638;28;20141;-60
2023/02/13 08:55:55;;;;;;;18.15;11.57;;;22.70;32.80;;;;;;5004981;28;20049;-60
2023/02/13 08:58:23;;;;;;;20.05;12.18;;;22.70;32.80;;;;;;5003879;28;20124;-60
2023/02/13 09:00:50;;;;;;;16.70;10.95;;;22.80;32.80;;;;;;5004236;28;20482;-63
2023/02/13 09:03:18;;;;;;;14.88;10.70;;;22.80;32.70;;;;;;5004845;28;20072;-62
2023/02/13 09:05:46;;;;;;;17.35;9.98;;;22.80;32.50;;;;;;5005161;28;20130;-62
2023/02/13 09:08:13;;;;;;;14.80;10.57;;;22.80;32.10;;;;;;5003027;28;20046;-61
2023/02/13 09:10:43;;;;;;;13.95;9.75;;;22.90;31.90;;;;;;5000062;28;20088;-60
2023/02/13 09:13:11;;;;;;;14.77;10.10;;;22.90;31.80;;;;;;5003816;28;20112;-61
2023/02/13 09:15:39;;;;;;;12.80;8.95;;;23.00;31.70;;;;;;5002136;28;20175;-61
2023/02/13 09:18:07;;;;;;;17.15;10.90;;;23.00;31.50;;;;;;5000337;28;20054;-62
2023/02/13 09:20:34;;;;;;;15.70;10.15;;;23.00;31.70;;;;;;5004666;28;20141;-61
2023/02/13 09:23:02;;;;;;;15.90;10.13;;;23.10;31.90;;;;;;5004440;28;20406;-61
2023/02/13 09:25:29;;;;;;;14.73;10.02;;;23.10;32.00;;;;;;5004111;28;20046;-61
2023/02/13 09:27:58;;;;;;;15.52;9.73;;;23.10;32.00;;;;;;5006104;28;20106;-63
2023/02/13 09:30:25;;;;;;;15.68;9.25;;;23.10;32.00;;;;;;5003973;28;20570;-61
2023/02/13 09:32:54;;;;;;;14.00;9.10;;;23.20;32.00;;;;;;5004547;28;20081;-61
2023/02/13 09:35:22;;;;;;;16.30;10.20;;;23.20;32.00;;;;;;5004429;28;20100;-62
2023/02/13 09:37:50;;;;;;;14.90;9.25;;;23.30;32.00;;;;;;5003698;28;20172;-60
2023/02/13 09:40:25;;;;;;;14.27;8.90;;;23.30;32.00;;;;;;5001324;28;20081;-60
2023/02/13 09:43:06;;;;;;;16.75;9.20;;;23.30;31.90;;;;;;5001206;28;20064;-61
2023/02/13 09:45:34;;;;;;;13.18;7.80;;;23.30;31.80;;;;;;5003888;28;20143;-63
2023/02/13 09:48:02;;;;;;;14.88;8.38;;;23.40;31.90;;;;;;5003338;28;20058;-61
2023/02/13 09:50:33;;;;;;;13.50;7.85;;;23.40;31.80;;;;;;5004516;28;20469;-60
2023/02/13 09:53:03;;;;;;;15.70;8.13;;;23.40;31.70;;;;;;5002744;28;20057;-60
2023/02/13 09:55:51;;;;;;;18.75;9.63;;;23.40;31.80;;;;;;5004603;28;20133;-63
2023/02/13 09:58:45;;;;;;;11.32;7.15;;;23.50;31.80;;;;;;5003690;28;20085;-62
2023/02/13 10:01:27;;;;;;;13.93;8.93;;;23.50;31.80;;;;;;4999783;28;20053;-62
2023/02/13 10:04:30;;;;;;;12.88;7.15;;;23.50;31.60;;;;;;5004741;28;20140;-62
2023/02/13 10:07:37;;;;;;;10.10;7.05;;;23.50;31.30;;;;;;5003163;28;20133;-61
2023/02/13 10:10:27;;;;;;;8.82;6.32;;;23.60;31.30;;;;;;4992497;28;20340;-62
2023/02/13 10:13:29;;;;;;;13.45;8.13;;;23.60;31.10;;;;;;5001651;28;20150;-61
2023/02/13 10:16:08;;;;;;;10.60;6.63;;;23.60;31.10;;;;;;4992706;28;20053;-62
2023/02/13 10:18:56;;;;;;;10.90;6.65;;;23.60;31.00;;;;;;5004745;28;20054;-62
2023/02/13 10:21:32;;;;;;;8.88;6.75;;;23.60;30.90;;;;;;4999515;28;20046;-61
2023/02/13 10:24:10;;;;;;;9.05;6.45;;;23.60;30.90;;;;;;4982385;28;20516;-62
2023/02/13 10:26:41;;;;;;;10.18;6.22;;;23.60;31.00;;;;;;5002983;28;20080;-63
2023/02/13 10:32:21;;;;;;;;;;;23.60;30.90;;;;;;5002358;28;20054;-62
2023/02/13 10:34:52;;;;;;;9.18;5.38;;;23.60;30.90;;;;;;4987697;28;20428;-63
2023/02/13 10:37:20;;;;;;;7.30;5.82;;;23.70;30.90;;;;;;5000848;28;20140;-64
2023/02/13 10:39:50;;;;;;;9.55;6.28;;;23.70;30.90;;;;;;5005240;28;20446;-63
2023/02/13 10:42:43;;;;;;;9.88;5.85;;;23.70;30.80;;;;;;5006039;28;20497;-64
2023/02/13 10:45:48;;;;;;;5.97;4.93;;;23.70;30.80;;;;;;5004670;28;20951;-64
2023/02/13 10:48:42;;;;;;;8.02;5.30;;;23.70;30.80;;;;;;5002777;28;20046;-63
2023/02/13 10:51:35;;;;;;;8.68;5.07;;;23.70;30.70;;;;;;5004423;28;20054;-65
2023/02/13 10:54:28;;;;;;;9.68;6.00;;;23.70;30.60;;;;;;5004310;28;20478;-61
2023/02/13 10:57:15;;;;;;;8.68;4.55;;;23.80;30.60;;;;;;5005677;28;20116;-62
2023/02/13 11:00:09;;;;;;;10.98;5.43;;;23.80;30.60;;;;;;5004391;28;20064;-61
2023/02/13 11:02:37;;;;;;;7.25;4.50;;;23.80;30.60;;;;;;5007714;28;20387;-62
2023/02/13 11:05:22;;;;;;;6.88;5.00;;;23.80;30.60;;;;;;5007677;28;20084;-62
2023/02/13 11:07:50;;;;;;;6.15;4.90;;;23.80;30.60;;;;;;5006900;28;20048;-61
2023/02/13 11:10:21;;;;;;;5.55;4.68;;;23.80;30.60;;;;;;5004579;28;20053;-62
2023/02/13 11:12:49;;;;;;;5.88;4.95;;;23.80;30.60;;;;;;5005295;28;22231;-63
2023/02/13 11:15:26;;;;;;;7.22;5.30;;;23.80;30.60;;;;;;5002509;28;20163;-62
2023/02/13 11:17:57;;;;;;;5.95;4.68;;;23.80;30.50;;;;;;5004369;28;20056;-62
2023/02/13 11:20:38;;;;;;;5.93;4.47;;;23.80;30.40;;;;;;5006893;28;20077;-59
2023/02/13 11:23:32;;;;;;;7.07;4.55;;;23.90;30.40;;;;;;5003698;28;20096;-62
2023/02/13 11:26:03;;;;;;;5.78;4.70;;;23.80;30.30;;;;;;4993788;28;20064;-62
2023/02/13 11:28:34;;;;;;;10.02;4.70;;;23.80;30.20;;;;;;5005856;28;20050;-62
2023/02/13 11:31:25;;;;;;;6.93;4.63;;;23.80;30.20;;;;;;5006446;28;20081;-63
2023/02/13 11:33:54;;;;;;;5.45;4.10;;;23.80;30.20;;;;;;5005716;28;20069;-63
2023/02/13 11:36:33;;;;;;;5.75;4.43;;;23.90;30.10;;;;;;4993287;28;21350;-63
2023/02/13 11:39:16;;;;;;;4.80;4.28;;;23.90;30.20;;;;;;5008271;28;20053;-62
2023/02/13 11:41:45;;;;;;;6.03;4.47;;;23.90;30.10;;;;;;4991683;28;20046;-62
2023/02/13 11:44:27;;;;;;;5.78;4.30;;;23.90;30.10;;;;;;4989371;28;20481;-64
2023/02/13 11:46:59;;;;;;;4.63;3.90;;;23.90;30.10;;;;;;4975222;28;20483;-62
2023/02/13 11:49:31;;;;;;;5.22;4.13;;;23.90;30.00;;;;;;4986814;28;20042;-61
2023/02/13 11:52:13;;;;;;;4.85;3.92;;;23.90;30.00;;;;;;4987201;28;20552;-62
2023/02/13 11:54:53;;;;;;;7.22;4.32;;;23.90;30.50;;;;;;4984826;28;20478;-62
2023/02/13 11:57:33;;;;;;;5.63;4.00;;;23.90;30.00;;;;;;4985965;28;20083;-61
2023/02/13 12:00:36;;;;;;;5.75;4.07;;;24.00;30.00;;;;;;4986240;28;20451;-61
2023/02/13 12:03:25;;;;;;;5.47;3.75;;;24.00;30.00;;;;;;4987764;28;20050;-60
2023/02/13 12:06:04;;;;;;;4.75;3.63;;;24.00;30.00;;;;;;4985235;28;20046;-60
2023/02/13 12:08:34;;;;;;;4.45;3.63;;;24.00;30.00;;;;;;4987383;28;20054;-60
2023/02/13 12:11:09;;;;;;;5.43;4.20;;;24.10;30.00;;;;;;4988392;28;20078;-60
2023/02/13 12:13:38;;;;;;;5.32;3.83;;;24.00;30.00;;;;;;4985550;28;20046;-61
2023/02/13 12:16:28;;;;;;;5.97;4.03;;;24.10;30.00;;;;;;4984247;28;20055;-59
2023/02/13 12:19:00;;;;;;;4.85;3.58;;;24.00;30.00;;;;;;4986489;28;22009;-60
2023/02/13 12:22:00;;;;;;;5.15;4.13;;;24.00;29.90;;;;;;4984808;28;20074;-64
2023/02/13 12:25:05;;;;;;;5.22;3.63;;;24.10;29.90;;;;;;4987199;28;20169;-61
2023/02/13 12:28:01;;;;;;;6.00;3.58;;;24.10;29.90;;;;;;4985535;28;20528;-62
2023/02/13 12:30:54;;;;;;;5.72;3.28;;;24.10;30.10;;;;;;4986899;28;20046;-61
2023/02/13 12:34:01;;;;;;;6.25;3.33;;;24.00;29.90;;;;;;4975485;28;20051;-60
2023/02/13 12:36:57;;;;;;;4.35;3.40;;;24.10;30.00;;;;;;4986057;28;20108;-60
2023/02/13 12:39:31;;;;;;;6.53;3.40;;;24.10;29.90;;;;;;4987347;28;20081;-60
2023/02/13 12:42:28;;;;;;;5.80;3.60;;;24.10;29.80;;;;;;5007227;28;20477;-59
2023/02/13 12:45:23;;;;;;;4.18;3.10;;;24.10;29.70;;;;;;5004892;28;20054;-59
2023/02/13 12:48:19;;;;;;;6.25;3.38;;;24.10;29.70;;;;;;5004037;28;20054;-58
2023/02/13 12:51:16;;;;;;;5.78;3.50;;;24.10;30.00;;;;;;5006175;28;20085;-60
2023/02/13 12:54:16;;;;;;;4.03;2.88;;;24.10;29.40;;;;;;4993326;28;20057;-62
2023/02/13 12:57:17;;;;;;;4.55;2.85;;;24.10;29.60;;;;;;5005068;28;20056;-62
2023/02/13 13:00:09;;;;;;;3.35;3.03;;;24.10;29.80;;;;;;4990288;28;20096;-63
2023/02/13 13:03:05;;;;;;;5.85;2.95;;;24.10;30.10;;;;;;5008795;28;20049;-62
2023/02/13 13:05:59;;;;;;;2.95;2.58;;;24.10;30.60;;;;;;5007469;28;20080;-62
2023/02/13 13:09:05;;;;;;;6.03;3.20;;;24.20;30.80;;;;;;5007161;28;20050;-61
2023/02/13 13:11:59;;;;;;;5.90;3.10;;;24.10;30.60;;;;;;5005792;28;20563;-61
2023/02/13 13:14:52;;;;;;;2.60;2.35;;;24.10;30.60;;;;;;5004551;28;20049;-61
2023/02/13 13:17:53;;;;;;;3.58;2.85;;;24.20;30.60;;;;;;5003007;28;21033;-60
2023/02/13 13:20:50;;;;;;;4.25;3.03;;;24.10;30.60;;;;;;5004287;28;20081;-61
2023/02/13 13:23:59;;;;;;;3.03;2.72;;;24.20;30.80;;;;;;5005969;28;20909;-61
2023/02/13 13:26:37;;;;;;;3.78;2.78;;;24.20;30.80;;;;;;5005119;28;20155;-60
2023/02/13 13:29:14;;;;;;;4.18;3.25;;;24.20;30.80;;;;;;5005473;28;20080;-60
2023/02/13 13:31:46;;;;;;;3.65;2.67;;;24.20;30.70;;;;;;5005278;28;20509;-60
2023/02/13 13:34:23;;;;;;;3.42;2.88;;;24.20;30.90;;;;;;5003732;28;20061;-59
2023/02/13 13:37:02;;;;;;;3.80;3.15;;;24.20;30.80;;;;;;5005816;28;20414;-61
2023/02/13 13:39:53;;;;;;;6.15;3.17;;;24.20;30.70;;;;;;5001661;28;20054;-61
2023/02/13 13:42:36;;;;;;;4.63;3.58;;;24.20;30.80;;;;;;5004232;28;20960;-60
2023/02/13 13:45:33;;;;;;;5.10;3.25;;;24.20;30.70;;;;;;5008573;28;20112;-61
2023/02/13 13:48:25;;;;;;;5.30;3.80;;;24.20;30.70;;;;;;5005068;28;20056;-60
2023/02/13 13:50:53;;;;;;;4.10;3.20;;;24.20;30.70;;;;;;5003794;28;21617;-61
2023/02/13 13:53:22;;;;;;;3.28;2.70;;;24.20;30.60;;;;;;5007848;28;20054;-62
2023/02/13 13:56:08;;;;;;;5.20;3.15;;;24.20;30.60;;;;;;5003563;28;20112;-63
2023/02/13 13:58:43;;;;;;;4.95;3.13;;;24.20;30.50;;;;;;5007038;28;20407;-61
2023/02/13 14:01:21;;;;;;;5.85;2.97;;;24.20;30.40;;;;;;5003469;28;20477;-61
2023/02/13 14:03:53;;;;;;;4.60;3.58;;;24.20;30.40;;;;;;5006187;28;20120;-59
2023/02/13 14:06:41;;;;;;;3.88;2.70;;;24.20;30.40;;;;;;5006290;28;20050;-61
2023/02/13 14:09:36;;;;;;;5.38;3.38;;;24.20;30.40;;;;;;5002349;28;20045;-63